Search for airport 
image banner adimage banner adimage banner ad
image banner ad

EVPA - Ikshkile

Located in Ikshkile, Latvia

ICAO - EVPA, IATA -

Data provided by Airmate  

General information

Coordinates: N56°48'54" E24°31'40"
Elevation is 65 feet MSL.
Magnetic variation is 5° East
View others Airports in Ogre District

Operational data

Special qualification required
Current time UTC:
Current local time:
Weather at : EVRA - Riga ( 36 km )
METAR: EVRA 291620Z 31004KT 250V350 9999 SCT048CB 23/17 Q1005 NOSIG
TAF: TAF EVRA 291401Z 2915/3015 22009KT 9999 SCT030 TEMPO 2915/2918 SCT040CB PROB40 TEMPO 2923/3005 4000 -SHRA SCT040CB TEMPO 3006/3009 SCT030CB TEMPO 3011/3015 22020G30KT SCT030CB
View NOTAMs / SUP AIP / TFR affecting this airport [VIEW]
Communications frequencies: [VIEW]

Runways:

RWY identifierQFULength (ft)Width (ft)SurfaceLDA (ft)
0885°196966GRASS
26265°196966GRASS

Airport contact information

Address: Ikshkile Latvia

Satellite view of EVPA